Time;durP1;ratioP1;P1;durP2;ratioP2;P2;SDS_P1;SDS_P2;PMS_P1;PMS_P2;Temp;Humidity;BMP_temperature;BMP_pressure;BME280_temperature;BME280_humidity;BME280_pressure;Samples;Min_cycle;Max_cycle;Signal;HPM_P1;HPM_P2
2023/01/05 00:02:02;;;;;;;9.23;4.50;;;;;;;1.64;76.96;100259.75;1677168;85;21107;-67
2023/01/05 00:04:31;;;;;;;8.58;4.55;;;;;;;1.64;77.00;100254.34;1677396;85;21167;-67
2023/01/05 00:07:02;;;;;;;9.88;4.50;;;;;;;1.64;76.97;100253.00;1677185;85;21047;-67
2023/01/05 00:09:31;;;;;;;8.70;4.25;;;;;;;1.66;77.04;100258.26;1652986;85;21083;-68
2023/01/05 00:23:16;;;;;;;7.58;3.83;;;;;;;1.69;77.19;100218.81;1677281;85;21460;-67
2023/01/05 00:25:45;;;;;;;9.05;4.40;;;;;;;1.69;77.13;100202.61;1596732;90;21066;-68
2023/01/05 00:28:15;;;;;;;10.03;4.50;;;;;;;1.71;77.15;100200.61;1572541;91;21607;-66
2023/01/05 00:30:45;;;;;;;8.38;4.60;;;;;;;1.71;77.12;100190.66;1596708;89;21545;-68
2023/01/05 00:33:16;;;;;;;7.40;3.90;;;;;;;1.74;77.12;100193.56;1594768;90;21589;-67
2023/01/05 00:35:44;;;;;;;6.92;4.30;;;;;;;1.75;77.08;100176.36;1577554;91;21227;-66
2023/01/05 00:38:14;;;;;;;8.78;4.15;;;;;;;1.75;77.07;100163.71;1597166;90;21074;-66
2023/01/05 00:40:43;;;;;;;8.90;3.85;;;;;;;1.76;77.03;100160.52;1573194;91;21561;-65
2023/01/05 00:43:13;;;;;;;8.43;4.15;;;;;;;1.77;77.00;100153.61;1614652;85;21016;-64
2023/01/05 00:45:44;;;;;;;8.33;4.30;;;;;;;1.76;77.00;100149.21;1677520;85;21047;-66
2023/01/05 00:48:13;;;;;;;7.45;4.20;;;;;;;1.76;77.01;100147.86;1677627;85;21098;-67
2023/01/05 00:50:42;;;;;;;7.42;3.95;;;;;;;1.75;77.00;100139.41;1677201;85;21120;-68
2023/01/05 00:53:12;;;;;;;10.20;4.33;;;;;;;1.78;77.09;100136.91;1677411;85;21127;-64
2023/01/05 00:55:42;;;;;;;8.70;4.40;;;;;;;1.80;77.11;100124.95;1677298;85;21106;-66
2023/01/05 00:58:11;;;;;;;8.53;4.53;;;;;;;1.84;77.07;100129.56;1677544;85;21047;-66
2023/01/05 01:00:41;;;;;;;10.08;4.62;;;;;;;1.84;77.01;100117.41;1677363;85;21040;-67
2023/01/05 01:03:12;;;;;;;7.00;3.98;;;;;;;1.86;76.99;100107.30;1676793;85;21111;-65
2023/01/05 01:05:41;;;;;;;9.18;3.90;;;;;;;1.88;77.02;100079.14;1677502;85;21047;-67
2023/01/05 01:08:11;;;;;;;7.72;4.20;;;;;;;1.90;77.01;100080.34;1677523;85;21059;-65
2023/01/05 01:10:40;;;;;;;7.83;4.47;;;;;;;1.90;77.01;100070.39;1677147;85;21428;-67
2023/01/05 01:13:09;;;;;;;7.20;4.40;;;;;;;1.90;77.00;100062.78;1677396;85;21031;-67
2023/01/05 01:15:38;;;;;;;8.83;4.55;;;;;;;1.92;77.04;100060.78;1654519;85;21482;-67
2023/01/05 01:18:08;;;;;;;8.88;4.47;;;;;;;1.94;77.06;100052.52;1677112;85;21572;-64
2023/01/05 01:20:38;;;;;;;8.38;4.37;;;;;;;1.97;77.09;100046.35;1677321;85;21230;-67
2023/01/05 01:23:08;;;;;;;8.60;4.65;;;;;;;1.98;77.14;100047.20;1677185;85;21458;-66
2023/01/05 01:25:38;;;;;;;10.85;4.87;;;;;;;1.99;77.19;100043.00;1677383;85;21062;-66
2023/01/05 01:28:07;;;;;;;10.00;4.67;;;;;;;2.04;77.28;100044.74;1654603;85;21118;-67
2023/01/05 01:30:38;;;;;;;13.20;4.60;;;;;;;2.06;77.09;100037.84;1677100;85;21071;-66
2023/01/05 01:33:07;;;;;;;9.70;4.62;;;;;;;2.05;77.04;100014.02;1677362;85;21072;-66
2023/01/05 01:35:38;;;;;;;9.98;4.78;;;;;;;2.07;77.05;100014.72;1677193;85;21110;-65
2023/01/05 01:38:09;;;;;;;10.98;4.85;;;;;;;2.07;77.10;100004.41;1677093;85;21467;-65
2023/01/05 01:40:43;;;;;;;10.65;5.22;;;;;;;2.09;77.23;99998.34;1653526;85;21121;-66
2023/01/05 01:43:40;;;;;;;11.10;5.58;;;;;;;2.09;77.23;99982.98;1676879;85;21162;-66
2023/01/05 01:46:09;;;;;;;12.13;5.30;;;;;;;2.09;77.21;99971.33;1674687;85;21047;-66
2023/01/05 01:48:44;;;;;;;12.10;6.00;;;;;;;2.10;77.28;99967.12;1677358;85;21495;-66
2023/01/05 01:51:19;;;;;;;9.45;5.28;;;;;;;2.12;77.33;99962.41;1677113;85;21070;-67
2023/01/05 01:53:52;;;;;;;10.25;5.47;;;;;;;2.13;77.34;99947.89;1654651;85;21075;-69
2023/01/05 01:56:23;;;;;;;10.80;5.70;;;;;;;2.12;77.35;99935.39;1633144;85;21103;-66
2023/01/05 01:58:52;;;;;;;8.80;5.08;;;;;;;2.14;77.42;99928.48;1677359;85;21087;-66
2023/01/05 02:01:22;;;;;;;10.75;5.17;;;;;;;2.16;77.43;99920.56;1677329;85;21118;-66
2023/01/05 02:03:52;;;;;;;10.03;5.28;;;;;;;2.16;77.39;99909.75;1677099;85;21542;-66
2023/01/05 02:06:21;;;;;;;9.08;4.90;;;;;;;2.17;77.37;99902.49;1677320;85;21007;-65
2023/01/05 02:08:49;;;;;;;9.60;4.95;;;;;;;2.16;77.39;99885.93;1677149;85;21094;-65
2023/01/05 02:11:49;;;;;;;12.47;5.35;;;;;;;2.16;77.47;99874.62;1677143;85;21051;-65
2023/01/05 02:14:43;;;;;;;10.20;5.30;;;;;;;2.18;77.46;99869.05;1621183;88;21519;-65
2023/01/05 02:17:51;;;;;;;9.60;4.87;;;;;;;2.16;77.49;99867.86;1596402;90;21116;-67
2023/01/05 02:20:43;;;;;;;9.75;5.25;;;;;;;2.13;77.50;99860.07;1667960;85;21153;-65
2023/01/05 02:23:30;;;;;;;8.55;4.70;;;;;;;2.13;77.66;99848.41;1677189;85;21103;-66
2023/01/05 02:26:30;;;;;;;6.47;3.60;;;;;;;2.17;77.77;99837.63;1677359;85;21043;-65
2023/01/05 02:29:35;;;;;;;10.23;5.30;;;;;;;2.16;77.74;99824.63;1677511;85;21051;-67
2023/01/05 02:32:34;;;;;;;11.22;5.78;;;;;;;2.17;77.83;99833.58;1685849;85;21082;-67
2023/01/05 02:35:33;;;;;;;11.93;5.15;;;;;;;2.18;77.82;99825.81;1687023;85;21055;-65
2023/01/05 02:38:34;;;;;;;11.95;5.05;;;;;;;2.19;77.86;99822.11;1686160;85;21150;-66
2023/01/05 02:41:30;;;;;;;10.90;5.03;;;;;;;2.20;77.86;99820.59;1667470;85;21075;-66
2023/01/05 02:44:01;;;;;;;10.20;4.85;;;;;;;2.23;77.92;99815.38;1686052;85;21090;-66
2023/01/05 02:46:31;;;;;;;9.83;5.28;;;;;;;2.26;77.96;99817.77;1686019;85;21523;-66
2023/01/05 02:49:00;;;;;;;8.83;5.30;;;;;;;2.30;77.95;99795.32;1645022;85;21106;-66
2023/01/05 02:51:36;;;;;;;10.20;5.28;;;;;;;2.31;77.84;99797.02;1686375;85;21486;-67
2023/01/05 02:54:15;;;;;;;13.95;6.17;;;;;;;2.29;77.76;99796.33;1686157;85;21525;-66
2023/01/05 02:56:48;;;;;;;10.88;5.17;;;;;;;2.29;77.81;99792.27;1686186;85;21510;-67
2023/01/05 02:59:25;;;;;;;12.50;5.20;;;;;;;2.30;77.82;99782.66;1686169;85;21549;-66
2023/01/05 03:02:03;;;;;;;10.35;5.17;;;;;;;2.33;77.88;99770.67;1686027;85;21540;-66
2023/01/05 03:04:49;;;;;;;11.18;5.00;;;;;;;2.35;77.84;99763.25;1686129;85;21447;-66
2023/01/05 03:07:27;;;;;;;9.00;4.07;;;;;;;2.37;77.87;99758.53;1686336;85;21039;-68
2023/01/05 03:09:56;;;;;;;11.45;5.80;;;;;;;2.36;77.84;99741.97;1611168;89;21533;-65
2023/01/05 03:15:28;;;;;;;;;;;;;;;2.37;77.86;99722.89;1622949;88;21114;-66
2023/01/05 03:18:02;;;;;;;10.28;5.35;;;;;;;2.37;77.98;99712.58;1620495;88;20584;-65
2023/01/05 03:20:32;;;;;;;10.25;6.40;;;;;;;2.36;78.19;99701.42;1620576;88;21128;-65
2023/01/05 03:37:49;;;;;;;11.25;6.15;;;;;;;2.37;79.77;99663.92;1698536;84;21086;-66
2023/01/05 03:40:31;;;;;;;11.53;6.50;;;;;;;2.35;80.12;99656.48;1698460;84;21066;-66
2023/01/05 03:43:01;;;;;;;13.13;6.62;;;;;;;2.28;80.62;99648.69;1698310;84;22091;-67
2023/01/05 03:45:39;;;;;;;11.57;6.45;;;;;;;2.22;81.12;99646.12;1698171;84;21482;-66
2023/01/05 03:48:10;;;;;;;12.03;6.30;;;;;;;2.19;81.51;99629.73;1698420;83;21051;-64
2023/01/05 03:50:40;;;;;;;12.35;6.20;;;;;;;2.19;81.88;99631.59;1698465;83;21062;-66
2023/01/05 03:53:12;;;;;;;13.95;5.92;;;;;;;2.16;82.24;99613.84;1698541;84;21502;-65
2023/01/05 03:55:42;;;;;;;12.25;6.40;;;;;;;2.17;82.53;99616.05;1677314;84;21066;-65
2023/01/05 03:58:11;;;;;;;12.43;6.17;;;;;;;2.14;82.83;99601.00;1698390;84;21470;-66
2023/01/05 04:00:42;;;;;;;12.35;6.25;;;;;;;2.12;83.21;99600.33;1698656;84;21101;-66
2023/01/05 04:03:11;;;;;;;11.68;6.22;;;;;;;2.11;83.59;99590.52;1698516;84;21528;-64
2023/01/05 04:05:41;;;;;;;15.38;6.58;;;;;;;2.12;83.97;99592.22;1698531;84;21065;-64
2023/01/05 04:08:11;;;;;;;13.70;6.60;;;;;;;2.14;84.32;99583.95;1698587;84;21121;-65
2023/01/05 04:10:43;;;;;;;12.23;6.45;;;;;;;2.13;84.54;99579.05;1698409;82;21087;-68
2023/01/05 04:13:13;;;;;;;11.73;6.55;;;;;;;2.13;84.88;99569.59;1698649;84;21073;-66
2023/01/05 04:15:43;;;;;;;10.98;6.28;;;;;;;2.13;85.15;99561.48;1698457;84;21038;-67
2023/01/05 04:18:15;;;;;;;15.88;6.78;;;;;;;2.13;85.63;99557.43;1698390;84;21098;-65
2023/01/05 04:20:45;;;;;;;13.20;6.85;;;;;;;2.15;85.92;99556.76;1698569;84;21054;-68
2023/01/05 04:23:15;;;;;;;13.28;6.53;;;;;;;2.17;86.27;99550.69;1698626;84;21066;-71
2023/01/05 04:25:46;;;;;;;13.43;6.90;;;;;;;2.18;86.55;99537.52;1698592;84;21157;-71
2023/01/05 04:28:16;;;;;;;11.88;6.53;;;;;;;2.19;86.88;99522.99;1679506;84;21094;-72
2023/01/05 04:30:50;;;;;;;14.98;7.53;;;;;;;2.18;87.25;99506.44;1698626;83;21077;-69
2023/01/05 04:33:22;;;;;;;13.58;7.30;;;;;;;2.19;87.62;99499.17;1680231;84;21090;-69
2023/01/05 04:35:51;;;;;;;15.10;7.65;;;;;;;2.17;87.96;99491.74;1698801;83;21240;-71
2023/01/05 04:38:20;;;;;;;15.60;7.62;;;;;;;2.14;88.38;99475.36;1700505;84;21470;-68
2023/01/05 04:40:51;;;;;;;15.00;7.12;;;;;;;2.14;88.71;99478.06;1655612;84;21058;-70
2023/01/05 04:43:20;;;;;;;13.45;7.45;;;;;;;2.16;89.03;99476.55;1698457;84;21014;-69
2023/01/05 04:45:49;;;;;;;15.30;6.87;;;;;;;2.19;89.41;99465.41;1698559;83;21458;-67
2023/01/05 04:48:18;;;;;;;13.48;7.90;;;;;;;2.17;89.80;99462.87;1698561;83;21142;-69
2023/01/05 04:50:55;;;;;;;12.95;6.90;;;;;;;2.16;90.16;99458.47;1677502;84;21074;-68
2023/01/05 04:53:27;;;;;;;12.78;7.62;;;;;;;2.18;90.59;99442.94;1697791;84;21147;-66
2023/01/05 04:55:57;;;;;;;12.43;7.25;;;;;;;2.21;90.97;99448.52;1677339;84;21023;-67
2023/01/05 04:58:27;;;;;;;13.88;7.10;;;;;;;2.22;91.46;99436.69;1698597;84;21066;-65
2023/01/05 05:01:00;;;;;;;16.48;7.62;;;;;;;2.25;91.83;99435.52;1698402;83;21054;-65
2023/01/05 05:03:32;;;;;;;13.98;6.97;;;;;;;2.27;92.18;99423.52;1698733;84;21073;-65
2023/01/05 05:06:02;;;;;;;12.33;6.83;;;;;;;2.30;92.56;99425.88;1698515;84;21042;-66
2023/01/05 05:08:32;;;;;;;12.53;7.10;;;;;;;2.35;92.95;99422.17;1698576;84;21110;-65
2023/01/05 05:11:05;;;;;;;13.68;7.55;;;;;;;2.38;93.27;99422.34;1698448;84;21111;-66
2023/01/05 05:13:36;;;;;;;14.70;7.87;;;;;;;2.41;93.60;99413.38;1698692;84;21466;-65
2023/01/05 05:16:07;;;;;;;14.28;6.75;;;;;;;2.43;93.91;99405.09;1698471;84;21074;-66
2023/01/05 05:18:36;;;;;;;10.88;6.67;;;;;;;2.45;94.34;99393.10;1698350;84;21125;-65
2023/01/05 05:21:07;;;;;;;12.13;6.62;;;;;;;2.48;94.65;99389.22;1677388;84;21030;-65
2023/01/05 05:23:36;;;;;;;12.30;6.70;;;;;;;2.50;94.96;99383.13;1698511;84;21458;-65
2023/01/05 05:26:06;;;;;;;16.32;8.90;;;;;;;2.53;95.23;99384.14;1698579;84;21035;-65
2023/01/05 05:28:35;;;;;;;20.80;10.13;;;;;;;2.56;95.54;99385.15;1698375;84;21041;-64
2023/01/05 05:31:04;;;;;;;24.75;10.93;;;;;;;2.58;95.83;99380.92;1697039;83;21616;-66
2023/01/05 05:33:33;;;;;;;14.75;7.78;;;;;;;2.60;96.08;99371.66;1690981;85;21480;-65
2023/01/05 05:36:02;;;;;;;14.73;7.80;;;;;;;2.61;96.25;99361.17;1690902;85;21518;-66
2023/01/05 05:38:31;;;;;;;13.03;7.00;;;;;;;2.64;96.49;99358.63;1665680;85;21106;-65
2023/01/05 05:41:00;;;;;;;13.90;8.13;;;;;;;2.67;96.77;99347.47;1691069;84;21051;-65
2023/01/05 05:43:30;;;;;;;13.95;7.35;;;;;;;2.69;96.92;99345.44;1691166;85;21083;-66
2023/01/05 05:45:59;;;;;;;12.73;7.30;;;;;;;2.70;97.12;99341.20;1691025;85;21106;-66
2023/01/05 05:48:28;;;;;;;13.05;7.28;;;;;;;2.72;97.23;99336.97;1691100;85;21548;-66
2023/01/05 05:51:01;;;;;;;13.22;7.35;;;;;;;2.73;97.40;99328.69;1690892;85;21051;-67
2023/01/05 05:53:30;;;;;;;13.45;7.10;;;;;;;2.75;97.56;99321.75;1691069;85;21467;-66
2023/01/05 05:55:59;;;;;;;16.20;8.68;;;;;;;2.76;97.71;99317.52;1664395;85;21051;-66
2023/01/05 05:58:29;;;;;;;12.85;8.13;;;;;;;2.77;97.88;99304.33;1690798;85;21086;-67
2023/01/05 06:00:58;;;;;;;12.73;7.60;;;;;;;2.80;98.00;99305.34;1690982;85;21066;-66
2023/01/05 06:03:28;;;;;;;17.55;7.92;;;;;;;2.83;98.21;99299.58;1690902;85;21549;-66
2023/01/05 06:05:59;;;;;;;22.93;9.53;;;;;;;2.85;98.36;99290.77;1642289;85;21523;-65
2023/01/05 06:08:29;;;;;;;16.50;7.05;;;;;;;2.86;98.54;99288.91;1690934;85;21125;-65
2023/01/05 06:10:59;;;;;;;21.97;9.60;;;;;;;2.86;98.66;99278.94;1690886;85;21113;-66
2023/01/05 06:13:29;;;;;;;21.37;9.75;;;;;;;2.86;98.83;99272.17;1691090;85;21217;-67
2023/01/05 06:15:58;;;;;;;17.67;9.10;;;;;;;2.88;99.05;99269.80;1690842;85;21054;-66
2023/01/05 06:18:27;;;;;;;22.02;9.73;;;;;;;2.91;99.24;99262.69;1691061;85;21079;-65
2023/01/05 06:20:56;;;;;;;19.17;8.83;;;;;;;2.93;99.38;99265.55;1690889;85;21039;-64
2023/01/05 06:23:28;;;;;;;14.28;7.92;;;;;;;2.97;99.51;99269.59;1664637;85;21050;-66
2023/01/05 06:25:57;;;;;;;24.92;10.30;;;;;;;3.00;99.61;99258.92;1691032;85;21142;-65
2023/01/05 06:28:27;;;;;;;22.05;9.85;;;;;;;3.02;99.75;99256.88;1690856;84;21729;-65
2023/01/05 06:30:56;;;;;;;21.50;10.45;;;;;;;3.04;99.87;99248.08;1691078;85;21502;-65
2023/01/05 06:33:25;;;;;;;20.82;9.50;;;;;;;3.08;100.00;99249.41;1691007;85;21522;-66
2023/01/05 06:35:54;;;;;;;19.60;10.32;;;;;;;3.12;100.00;99246.67;1690843;85;21054;-67
2023/01/05 06:38:24;;;;;;;16.75;9.20;;;;;;;3.15;100.00;99246.31;1690856;85;21075;-65
2023/01/05 06:40:54;;;;;;;16.75;9.58;;;;;;;3.17;100.00;99238.86;1691029;85;21078;-65
2023/01/05 06:43:23;;;;;;;20.02;9.45;;;;;;;3.20;100.00;99227.67;1690911;85;21488;-66
2023/01/05 06:45:53;;;;;;;16.65;9.63;;;;;;;3.23;100.00;99232.73;1666095;85;21093;-66
2023/01/05 06:48:22;;;;;;;24.35;14.13;;;;;;;3.26;100.00;99228.86;1690894;85;21077;-68
2023/01/05 06:50:55;;;;;;;14.30;10.25;;;;;;;3.28;100.00;99238.48;1633129;88;21063;-67
2023/01/05 06:53:24;;;;;;;20.85;12.65;;;;;;;3.28;100.00;99230.36;1633025;88;21081;-65
2023/01/05 06:55:53;;;;;;;20.57;11.75;;;;;;;3.30;100.00;99228.83;1633119;88;21065;-67
2023/01/05 06:58:24;;;;;;;17.17;9.15;;;;;;;3.35;100.00;99214.23;1633119;88;21169;-67
2023/01/05 07:00:53;;;;;;;20.85;9.10;;;;;;;3.37;100.00;99204.91;1633069;88;21090;-66
2023/01/05 07:03:23;;;;;;;20.72;9.05;;;;;;;3.40;100.00;99201.00;1611806;88;21107;-66
2023/01/05 07:05:53;;;;;;;14.87;8.80;;;;;;;3.44;100.00;99202.33;1632997;88;21125;-67
2023/01/05 07:08:22;;;;;;;19.98;9.88;;;;;;;3.45;100.00;99207.55;1645441;85;21050;-66
2023/01/05 07:10:53;;;;;;;22.67;10.55;;;;;;;3.48;100.00;99199.07;1690904;85;21066;-65
2023/01/05 07:13:24;;;;;;;18.37;9.13;;;;;;;3.50;100.00;99187.55;1691121;85;21089;-64
2023/01/05 07:15:53;;;;;;;18.23;8.65;;;;;;;3.52;100.00;99176.53;1690632;85;21093;-66
2023/01/05 07:18:22;;;;;;;19.75;10.05;;;;;;;3.54;100.00;99168.23;1691081;85;21034;-65
2023/01/05 07:20:51;;;;;;;19.87;13.05;;;;;;;3.55;100.00;99167.20;1691215;85;21098;-66
2023/01/05 07:23:23;;;;;;;20.32;11.57;;;;;;;3.55;100.00;99166.69;1612464;88;21524;-66
2023/01/05 07:25:52;;;;;;;24.25;10.20;;;;;;;3.57;100.00;99168.70;1633193;88;21081;-64
2023/01/05 07:28:22;;;;;;;16.93;8.70;;;;;;;3.58;100.00;99159.55;1633332;88;21113;-64
2023/01/05 07:30:51;;;;;;;16.35;9.00;;;;;;;3.58;100.00;99160.91;1633109;88;21076;-64
2023/01/05 07:33:21;;;;;;;17.27;9.18;;;;;;;3.61;100.00;99151.58;1645148;86;21246;-64
2023/01/05 07:35:51;;;;;;;16.37;8.58;;;;;;;3.62;100.00;99128.88;1646883;87;21088;-65
2023/01/05 07:38:20;;;;;;;17.12;8.35;;;;;;;3.64;100.00;99150.69;1646873;87;21144;-66
2023/01/05 07:40:51;;;;;;;16.00;8.50;;;;;;;3.67;100.00;99150.84;1646702;87;21045;-65
2023/01/05 07:43:20;;;;;;;14.43;7.37;;;;;;;3.70;100.00;99151.83;1646885;87;21149;-65
2023/01/05 07:45:50;;;;;;;13.62;7.47;;;;;;;3.71;100.00;99148.09;1646895;86;21053;-65
2023/01/05 07:48:20;;;;;;;15.90;8.38;;;;;;;3.72;100.00;99137.07;1659388;84;21125;-64
2023/01/05 07:50:52;;;;;;;14.03;8.48;;;;;;;3.73;100.00;99133.84;1708236;84;21078;-64
2023/01/05 07:53:22;;;;;;;14.55;8.10;;;;;;;3.77;100.00;99125.68;1679364;84;21135;-63
2023/01/05 07:55:58;;;;;;;17.52;9.00;;;;;;;3.79;100.00;99111.44;1708239;84;21033;-65
2023/01/05 07:58:27;;;;;;;15.08;8.80;;;;;;;3.83;100.00;99111.39;1708409;84;21054;-64
2023/01/05 08:00:56;;;;;;;16.55;8.10;;;;;;;3.88;100.00;99121.16;1708176;84;21101;-65
2023/01/05 08:03:25;;;;;;;16.25;7.03;;;;;;;3.92;100.00;99110.30;1708190;83;21085;-64
2023/01/05 08:05:53;;;;;;;13.85;7.92;;;;;;;3.94;100.00;99109.60;1708328;84;21078;-64
2023/01/05 08:08:24;;;;;;;17.25;8.58;;;;;;;3.97;100.00;99122.78;1708399;83;21093;-63
2023/01/05 08:10:53;;;;;;;13.58;7.40;;;;;;;4.00;100.00;99112.92;1708214;84;21532;-63
2023/01/05 08:16:14;;;;;;;16.12;7.28;;;;;;;4.07;100.00;99091.33;1620399;88;21093;-67
2023/01/05 08:18:44;;;;;;;16.17;7.17;;;;;;;4.09;100.00;99087.41;1620455;88;21070;-65
2023/01/05 08:21:14;;;;;;;13.32;6.95;;;;;;;4.11;100.00;99081.28;1620538;88;21052;-65
2023/01/05 08:23:46;;;;;;;15.05;7.62;;;;;;;4.13;100.00;99083.28;1620749;88;21052;-66
2023/01/05 08:26:18;;;;;;;13.55;7.40;;;;;;;4.17;100.00;99080.20;1620627;88;21033;-66
2023/01/05 08:28:48;;;;;;;12.13;6.12;;;;;;;4.21;100.00;99081.50;1592154;90;21050;-65
2023/01/05 08:31:24;;;;;;;13.78;6.45;;;;;;;4.27;100.00;99067.19;1625012;85;21090;-65
2023/01/05 08:33:58;;;;;;;11.43;6.35;;;;;;;4.34;100.00;99072.17;1677854;83;21087;-64
2023/01/05 08:36:30;;;;;;;12.53;6.47;;;;;;;4.38;100.00;99068.89;1677485;85;21012;-64
2023/01/05 08:39:01;;;;;;;12.70;6.40;;;;;;;4.43;100.00;99061.02;1677248;85;21530;-66
2023/01/05 08:41:34;;;;;;;11.35;6.45;;;;;;;4.46;100.00;99050.30;1677206;85;21019;-63
2023/01/05 08:44:07;;;;;;;11.35;6.60;;;;;;;4.50;100.00;99052.95;1677465;85;21046;-64
2023/01/05 08:49:21;;;;;;;11.83;5.90;;;;;;;4.60;100.00;99041.83;1682690;85;21075;-63
2023/01/05 08:51:51;;;;;;;12.75;6.28;;;;;;;4.62;100.00;99033.82;1682702;85;21016;-67
2023/01/05 08:54:20;;;;;;;11.63;6.17;;;;;;;4.65;100.00;99035.31;1682550;85;21544;-63
2023/01/05 08:56:51;;;;;;;15.30;8.05;;;;;;;4.67;100.00;99033.23;1682698;85;21476;-64
2023/01/05 08:59:21;;;;;;;15.15;7.37;;;;;;;4.71;100.00;99034.02;1682549;85;21043;-65
2023/01/05 09:01:51;;;;;;;17.40;8.88;;;;;;;4.73;100.00;99025.16;1682525;85;21528;-66
2023/01/05 09:04:21;;;;;;;14.07;7.60;;;;;;;4.75;100.00;99014.96;1682865;85;21086;-65
2023/01/05 09:06:50;;;;;;;16.07;9.70;;;;;;;4.77;100.00;99010.18;1682484;85;21417;-63
2023/01/05 09:09:23;;;;;;;34.27;17.37;;;;;;;4.79;100.00;99004.55;1682764;85;21110;-64
2023/01/05 09:11:52;;;;;;;21.07;10.72;;;;;;;4.82;99.93;98998.73;1682819;85;21065;-63
2023/01/05 09:14:21;;;;;;;10.32;6.78;;;;;;;4.84;99.83;98994.47;1659317;85;21495;-63
2023/01/05 09:16:50;;;;;;;15.90;8.15;;;;;;;4.88;99.73;98990.34;1682804;85;21455;-65
2023/01/05 09:19:22;;;;;;;11.83;6.65;;;;;;;4.90;99.55;98986.91;1679650;85;21620;-64
2023/01/05 09:21:51;;;;;;;15.38;8.75;;;;;;;4.93;99.47;98979.73;1682557;85;21035;-64
2023/01/05 09:24:21;;;;;;;13.22;8.13;;;;;;;4.95;99.37;98984.44;1682773;85;21474;-64
2023/01/05 09:26:51;;;;;;;12.65;6.83;;;;;;;4.97;99.22;98975.59;1682637;85;21039;-63
2023/01/05 09:29:22;;;;;;;15.05;8.80;;;;;;;5.00;99.17;98967.89;1682749;85;21134;-64
2023/01/05 09:31:53;;;;;;;12.70;7.20;;;;;;;5.03;99.07;98968.02;1682687;85;21439;-65
2023/01/05 09:34:21;;;;;;;12.80;7.10;;;;;;;5.05;98.94;98965.94;1682568;85;21086;-64
2023/01/05 09:36:50;;;;;;;12.78;7.40;;;;;;;5.08;98.89;98960.12;1682562;85;21554;-64
2023/01/05 09:39:21;;;;;;;12.68;6.78;;;;;;;5.12;98.87;98953.25;1682750;85;21087;-64
2023/01/05 09:41:58;;;;;;;10.28;5.65;;;;;;;5.15;98.79;98946.07;1682591;85;21055;-64
2023/01/05 09:44:43;;;;;;;8.73;5.00;;;;;;;5.17;98.69;98943.99;1660582;85;21067;-66
2023/01/05 09:47:39;;;;;;;12.13;6.62;;;;;;;5.22;98.63;98945.62;1682525;85;21008;-63
2023/01/05 09:50:24;;;;;;;8.70;5.05;;;;;;;5.24;98.46;98929.98;1693746;83;21461;-65
2023/01/05 09:52:56;;;;;;;8.60;5.37;;;;;;;5.27;98.44;98928.73;1693677;83;21046;-65
2023/01/05 09:55:30;;;;;;;9.58;5.40;;;;;;;5.30;98.48;98931.05;1721094;83;21076;-64
2023/01/05 09:58:06;;;;;;;10.23;5.53;;;;;;;5.33;98.52;98923.86;1720920;83;21216;-64
2023/01/05 10:00:38;;;;;;;13.25;6.55;;;;;;;5.34;98.48;98916.88;1694112;85;21059;-64
2023/01/05 10:03:11;;;;;;;8.45;4.67;;;;;;;5.35;98.51;98920.43;1694153;85;21050;-64
2023/01/05 10:05:43;;;;;;;9.75;5.05;;;;;;;5.36;98.60;98913.95;1697779;83;21039;-64
2023/01/05 10:08:43;;;;;;;8.80;4.87;;;;;;;5.36;98.61;98906.65;1693701;83;20995;-65
2023/01/05 10:14:18;;;;;;;11.55;6.08;;;;;;;5.38;98.75;98896.42;1693665;85;21458;-66
2023/01/05 10:16:46;;;;;;;9.43;5.50;;;;;;;5.40;98.83;98890.27;1693414;85;21042;-65
2023/01/05 10:19:18;;;;;;;9.43;5.05;;;;;;;5.44;98.92;98896.66;1691677;84;21486;-65
2023/01/05 10:22:23;;;;;;;14.95;5.50;;;;;;;5.45;99.07;98885.59;1693953;85;21062;-66
2023/01/05 10:25:35;;;;;;;10.60;5.97;;;;;;;5.46;99.06;98884.55;1692962;84;21534;-65
2023/01/05 10:28:12;;;;;;;11.88;7.65;;;;;;;5.48;99.20;98889.78;1693126;85;21059;-65
2023/01/05 10:31:01;;;;;;;11.43;6.37;;;;;;;5.53;99.45;98875.91;1692757;85;21011;-64
2023/01/05 10:33:54;;;;;;;9.68;5.55;;;;;;;5.53;99.48;98873.19;1670404;85;21047;-65
2023/01/05 10:36:45;;;;;;;10.68;5.67;;;;;;;5.58;99.58;98867.15;1692962;85;21062;-66
2023/01/05 10:40:00;;;;;;;9.63;5.10;;;;;;;5.59;99.73;98856.60;1689585;85;21058;-64
2023/01/05 10:43:11;;;;;;;9.63;5.42;;;;;;;5.59;99.75;98854.72;1693072;85;21524;-67
2023/01/05 10:45:41;;;;;;;10.88;5.97;;;;;;;5.60;99.82;98851.48;1693981;85;21023;-66
2023/01/05 10:48:18;;;;;;;8.00;4.53;;;;;;;5.63;99.95;98845.64;1690931;84;21083;-66
2023/01/05 10:50:48;;;;;;;8.35;4.83;;;;;;;5.64;100.00;98852.23;1693756;85;21059;-66
2023/01/05 10:53:25;;;;;;;7.67;3.95;;;;;;;5.66;100.00;98841.16;1693635;85;21026;-66
2023/01/05 10:56:05;;;;;;;11.15;4.65;;;;;;;5.66;100.00;98840.64;1693846;83;21527;-68
2023/01/05 10:58:38;;;;;;;7.05;4.42;;;;;;;5.67;100.00;98845.03;1693822;85;21086;-65
2023/01/05 11:01:24;;;;;;;8.70;4.35;;;;;;;5.70;100.00;98836.98;1693835;85;21039;-67
2023/01/05 11:04:05;;;;;;;8.40;4.70;;;;;;;5.74;100.00;98836.90;1693523;85;21036;-66
2023/01/05 11:06:37;;;;;;;10.05;4.58;;;;;;;5.76;100.00;98837.53;1676302;85;21469;-65
2023/01/05 11:09:21;;;;;;;6.62;3.27;;;;;;;5.79;100.00;98841.20;1693906;85;21549;-66
2023/01/05 11:12:00;;;;;;;8.28;4.10;;;;;;;5.80;100.00;98834.72;1693538;84;21031;-66
2023/01/05 11:14:32;;;;;;;9.13;3.98;;;;;;;5.82;100.00;98833.98;1693943;85;21043;-67
2023/01/05 11:17:04;;;;;;;6.47;3.90;;;;;;;5.85;100.00;98823.23;1693279;83;21075;-66
2023/01/05 11:19:45;;;;;;;10.75;4.97;;;;;;;5.87;100.00;98825.25;1720446;83;21518;-66
2023/01/05 11:22:29;;;;;;;8.15;4.00;;;;;;;5.92;100.00;98822.78;1642418;87;21057;-67
2023/01/05 11:25:21;;;;;;;6.65;3.90;;;;;;;5.94;100.00;98808.46;1642608;87;21096;-67
2023/01/05 11:28:14;;;;;;;10.03;4.33;;;;;;;5.97;100.00;98813.48;1642447;87;21145;-67
2023/01/05 11:31:00;;;;;;;7.25;3.92;;;;;;;5.99;100.00;98807.32;1621764;86;21073;-65
2023/01/05 11:33:33;;;;;;;7.50;4.22;;;;;;;6.01;100.00;98808.78;1642527;87;21069;-67
2023/01/05 11:36:04;;;;;;;8.63;4.75;;;;;;;6.04;100.00;98804.30;1631604;87;21496;-67
2023/01/05 11:38:33;;;;;;;10.13;4.30;;;;;;;6.07;100.00;98800.84;1642614;86;21591;-67
2023/01/05 11:41:02;;;;;;;7.60;4.10;;;;;;;6.09;99.99;98794.67;1681543;85;21498;-67
2023/01/05 11:43:31;;;;;;;15.20;9.03;;;;;;;6.10;99.87;98798.55;1693997;85;21098;-65
2023/01/05 11:46:03;;;;;;;33.92;13.22;;;;;;;6.11;99.78;98785.27;1720707;83;21078;-66
2023/01/05 11:48:34;;;;;;;15.20;6.45;;;;;;;6.14;99.77;98790.81;1695289;84;21104;-68
2023/01/05 11:51:03;;;;;;;7.47;4.20;;;;;;;6.16;99.70;98792.80;1698963;84;21106;-66
2023/01/05 11:53:37;;;;;;;8.23;3.47;;;;;;;6.17;99.64;98782.23;1699015;84;21122;-66
2023/01/05 11:56:14;;;;;;;7.17;3.60;;;;;;;6.18;99.55;98792.06;1698953;84;21061;-69
2023/01/05 11:58:46;;;;;;;7.67;4.10;;;;;;;6.19;99.53;98787.78;1665136;86;21618;-68
2023/01/05 12:02:08;;;;;;;8.18;4.12;;;;;;;6.23;99.48;98789.55;1643110;86;21027;-67
2023/01/05 12:05:03;;;;;;;7.87;3.60;;;;;;;6.24;99.42;98785.79;1665111;86;21111;-67
2023/01/05 12:07:39;;;;;;;8.13;3.50;;;;;;;6.27;99.34;98782.65;1665235;86;21128;-67
2023/01/05 12:10:20;;;;;;;7.15;3.30;;;;;;;6.29;99.33;98784.64;1665458;86;21070;-67
2023/01/05 12:13:00;;;;;;;6.58;3.70;;;;;;;6.29;99.20;98766.44;1665477;86;21138;-67
2023/01/05 12:15:47;;;;;;;7.65;3.45;;;;;;;6.32;99.17;98773.34;1665280;86;21067;-67
2023/01/05 12:18:24;;;;;;;4.95;2.90;;;;;;;6.34;99.07;98765.28;1638397;87;21098;-66
2023/01/05 12:21:01;;;;;;;5.10;2.90;;;;;;;6.37;99.00;98765.38;1684444;85;21052;-68
2023/01/05 12:23:58;;;;;;;5.12;3.08;;;;;;;6.39;98.97;98757.84;1684630;84;21520;-67
2023/01/05 12:27:08;;;;;;;5.25;3.15;;;;;;;6.41;98.80;98758.47;1684515;84;21040;-66
2023/01/05 12:29:55;;;;;;;6.03;3.12;;;;;;;6.42;98.65;98756.06;1684599;84;21024;-67
2023/01/05 12:32:52;;;;;;;5.97;3.17;;;;;;;6.43;98.41;98756.38;1651300;86;21467;-68
2023/01/05 12:35:58;;;;;;;6.87;4.20;;;;;;;6.44;98.41;98752.61;1681012;85;21151;-67
2023/01/05 12:38:51;;;;;;;7.05;3.67;;;;;;;6.46;98.42;98745.07;1637406;87;21589;-68
2023/01/05 12:41:32;;;;;;;6.70;3.35;;;;;;;6.48;98.43;98743.50;1684746;85;21027;-69
2023/01/05 12:44:34;;;;;;;4.78;2.90;;;;;;;6.49;98.44;98745.17;1604919;89;21040;-66